sensor_id;sensor_type;location;lat;lon;timestamp;pressure;altitude;pressure_sealevel;temperature;humidity
75298;BME280;63896;45.990;18.688;2023-11-19T00:02:07;101441.22;;;0.46;100.00
75298;BME280;63896;45.990;18.688;2023-11-19T00:05:11;101436.53;;;0.29;100.00
75298;BME280;63896;45.990;18.688;2023-11-19T00:08:15;101432.53;;;0.14;100.00
75298;BME280;63896;45.990;18.688;2023-11-19T00:11:17;101434.78;;;-0.04;100.00
75298;BME280;63896;45.990;18.688;2023-11-19T00:14:20;101426.53;;;-0.20;100.00
75298;BME280;63896;45.990;18.688;2023-11-19T00:17:23;101435.97;;;-0.30;100.00
75298;BME280;63896;45.990;18.688;2023-11-19T00:20:26;101436.56;;;-0.37;100.00
75298;BME280;63896;45.990;18.688;2023-11-19T00:23:28;101448.78;;;-0.49;100.00
75298;BME280;63896;45.990;18.688;2023-11-19T00:26:31;101451.72;;;-0.54;100.00
75298;BME280;63896;45.990;18.688;2023-11-19T00:29:34;101446.06;;;-0.59;100.00
75298;BME280;63896;45.990;18.688;2023-11-19T00:32:37;101440.84;;;-0.59;100.00
75298;BME280;63896;45.990;18.688;2023-11-19T00:35:41;101451.25;;;-0.70;100.00
75298;BME280;63896;45.990;18.688;2023-11-19T00:38:44;101452.06;;;-0.69;100.00
75298;BME280;63896;45.990;18.688;2023-11-19T00:41:47;101454.78;;;-0.71;100.00
75298;BME280;63896;45.990;18.688;2023-11-19T00:44:51;101458.00;;;-0.67;100.00
75298;BME280;63896;45.990;18.688;2023-11-19T00:47:54;101453.97;;;-0.60;100.00
75298;BME280;63896;45.990;18.688;2023-11-19T00:50:57;101450.09;;;-0.55;100.00
75298;BME280;63896;45.990;18.688;2023-11-19T00:53:59;101457.66;;;-0.52;100.00
75298;BME280;63896;45.990;18.688;2023-11-19T00:57:03;101465.72;;;-0.66;100.00
75298;BME280;63896;45.990;18.688;2023-11-19T01:00:06;101465.44;;;-0.74;100.00
75298;BME280;63896;45.990;18.688;2023-11-19T01:03:17;101469.25;;;-0.67;100.00
75298;BME280;63896;45.990;18.688;2023-11-19T01:06:30;101482.13;;;-0.76;100.00
75298;BME280;63896;45.990;18.688;2023-11-19T01:09:33;101471.13;;;-0.69;100.00
75298;BME280;63896;45.990;18.688;2023-11-19T01:12:37;101472.19;;;-0.71;100.00
75298;BME280;63896;45.990;18.688;2023-11-19T01:15:40;101444.97;;;-0.67;100.00
75298;BME280;63896;45.990;18.688;2023-11-19T01:18:44;101460.34;;;-0.64;100.00
75298;BME280;63896;45.990;18.688;2023-11-19T01:21:47;101463.09;;;-0.66;100.00
75298;BME280;63896;45.990;18.688;2023-11-19T01:24:49;101467.59;;;-0.57;100.00
75298;BME280;63896;45.990;18.688;2023-11-19T01:27:52;101461.81;;;-0.27;100.00
75298;BME280;63896;45.990;18.688;2023-11-19T01:30:55;101455.56;;;-0.13;100.00
75298;BME280;63896;45.990;18.688;2023-11-19T01:33:58;101451.88;;;-0.11;100.00
75298;BME280;63896;45.990;18.688;2023-11-19T01:37:01;101439.19;;;-0.15;100.00
75298;BME280;63896;45.990;18.688;2023-11-19T01:40:04;101428.06;;;-0.28;100.00
75298;BME280;63896;45.990;18.688;2023-11-19T01:43:09;101432.69;;;-0.32;100.00
75298;BME280;63896;45.990;18.688;2023-11-19T01:46:14;101443.94;;;-0.31;100.00
75298;BME280;63896;45.990;18.688;2023-11-19T01:49:19;101439.41;;;-0.18;100.00
75298;BME280;63896;45.990;18.688;2023-11-19T01:52:22;101434.34;;;-0.20;100.00
75298;BME280;63896;45.990;18.688;2023-11-19T01:55:27;101440.16;;;-0.16;100.00
75298;BME280;63896;45.990;18.688;2023-11-19T01:58:31;101434.69;;;-0.13;100.00
75298;BME280;63896;45.990;18.688;2023-11-19T02:01:34;101431.00;;;-0.11;100.00
75298;BME280;63896;45.990;18.688;2023-11-19T02:04:43;101429.69;;;0.06;100.00
75298;BME280;63896;45.990;18.688;2023-11-19T02:07:45;101419.94;;;0.08;100.00
75298;BME280;63896;45.990;18.688;2023-11-19T02:10:48;101412.94;;;0.09;100.00
75298;BME280;63896;45.990;18.688;2023-11-19T02:13:52;101417.34;;;0.08;100.00
75298;BME280;63896;45.990;18.688;2023-11-19T02:16:55;101414.88;;;0.07;100.00
75298;BME280;63896;45.990;18.688;2023-11-19T02:19:58;101423.94;;;0.23;100.00
75298;BME280;63896;45.990;18.688;2023-11-19T02:23:02;101415.53;;;0.20;100.00
75298;BME280;63896;45.990;18.688;2023-11-19T02:29:33;101393.59;;;0.22;100.00
75298;BME280;63896;45.990;18.688;2023-11-19T02:32:37;101386.63;;;0.23;100.00
75298;BME280;63896;45.990;18.688;2023-11-19T02:35:43;101384.38;;;0.18;100.00
75298;BME280;63896;45.990;18.688;2023-11-19T02:38:45;101389.13;;;0.13;100.00
75298;BME280;63896;45.990;18.688;2023-11-19T02:41:48;101378.81;;;0.00;100.00
75298;BME280;63896;45.990;18.688;2023-11-19T02:44:55;101381.59;;;-0.12;100.00
75298;BME280;63896;45.990;18.688;2023-11-19T02:47:58;101374.59;;;-0.23;100.00
75298;BME280;63896;45.990;18.688;2023-11-19T02:51:04;101376.00;;;-0.19;100.00
75298;BME280;63896;45.990;18.688;2023-11-19T02:54:07;101369.25;;;-0.21;100.00
75298;BME280;63896;45.990;18.688;2023-11-19T02:57:10;101382.88;;;-0.18;100.00
75298;BME280;63896;45.990;18.688;2023-11-19T03:00:23;101368.91;;;-0.17;100.00
75298;BME280;63896;45.990;18.688;2023-11-19T03:03:27;101369.25;;;-0.21;100.00
75298;BME280;63896;45.990;18.688;2023-11-19T03:06:41;101359.94;;;-0.35;100.00
75298;BME280;63896;45.990;18.688;2023-11-19T03:09:43;101346.28;;;-0.50;100.00
75298;BME280;63896;45.990;18.688;2023-11-19T03:12:46;101335.88;;;-0.61;100.00
75298;BME280;63896;45.990;18.688;2023-11-19T03:15:49;101335.63;;;-0.69;100.00
75298;BME280;63896;45.990;18.688;2023-11-19T03:18:52;101328.91;;;-0.71;100.00
75298;BME280;63896;45.990;18.688;2023-11-19T03:21:55;101322.03;;;-0.83;100.00
75298;BME280;63896;45.990;18.688;2023-11-19T03:24:58;101323.19;;;-0.87;100.00
75298;BME280;63896;45.990;18.688;2023-11-19T03:28:01;101340.50;;;-0.98;100.00
75298;BME280;63896;45.990;18.688;2023-11-19T03:31:06;101341.78;;;-1.03;100.00
75298;BME280;63896;45.990;18.688;2023-11-19T03:34:12;101335.88;;;-1.05;100.00
75298;BME280;63896;45.990;18.688;2023-11-19T03:37:15;101328.88;;;-1.05;100.00
75298;BME280;63896;45.990;18.688;2023-11-19T03:40:20;101334.19;;;-1.06;100.00
75298;BME280;63896;45.990;18.688;2023-11-19T03:43:22;101324.72;;;-0.96;100.00
75298;BME280;63896;45.990;18.688;2023-11-19T03:46:25;101327.72;;;-0.78;100.00
75298;BME280;63896;45.990;18.688;2023-11-19T03:49:28;101316.22;;;-0.76;100.00
75298;BME280;63896;45.990;18.688;2023-11-19T03:52:31;101312.34;;;-0.81;100.00
75298;BME280;63896;45.990;18.688;2023-11-19T03:55:45;101311.13;;;-0.88;100.00
75298;BME280;63896;45.990;18.688;2023-11-19T03:58:48;101308.31;;;-0.85;100.00
75298;BME280;63896;45.990;18.688;2023-11-19T04:01:51;101313.13;;;-0.81;100.00
75298;BME280;63896;45.990;18.688;2023-11-19T04:04:56;101302.84;;;-0.82;100.00
75298;BME280;63896;45.990;18.688;2023-11-19T04:07:59;101297.66;;;-0.93;100.00
75298;BME280;63896;45.990;18.688;2023-11-19T04:11:03;101295.72;;;-1.03;100.00
75298;BME280;63896;45.990;18.688;2023-11-19T04:14:06;101287.22;;;-1.05;100.00
75298;BME280;63896;45.990;18.688;2023-11-19T04:17:09;101276.09;;;-1.07;100.00
75298;BME280;63896;45.990;18.688;2023-11-19T04:20:13;101268.16;;;-1.05;100.00
75298;BME280;63896;45.990;18.688;2023-11-19T04:23:17;101269.00;;;-1.05;100.00
75298;BME280;63896;45.990;18.688;2023-11-19T04:26:20;101274.78;;;-1.01;100.00
75298;BME280;63896;45.990;18.688;2023-11-19T04:29:22;101259.28;;;-1.14;100.00
75298;BME280;63896;45.990;18.688;2023-11-19T04:32:26;101265.78;;;-1.19;100.00
75298;BME280;63896;45.990;18.688;2023-11-19T04:35:29;101263.31;;;-1.21;100.00
75298;BME280;63896;45.990;18.688;2023-11-19T04:38:32;101254.66;;;-1.21;100.00
75298;BME280;63896;45.990;18.688;2023-11-19T04:41:36;101246.59;;;-1.18;100.00
75298;BME280;63896;45.990;18.688;2023-11-19T04:44:39;101256.78;;;-1.15;100.00
75298;BME280;63896;45.990;18.688;2023-11-19T04:47:42;101251.72;;;-1.06;100.00
75298;BME280;63896;45.990;18.688;2023-11-19T04:50:45;101257.59;;;-0.92;100.00
75298;BME280;63896;45.990;18.688;2023-11-19T04:53:47;101249.94;;;-0.94;100.00
75298;BME280;63896;45.990;18.688;2023-11-19T04:56:50;101239.97;;;-1.00;100.00
75298;BME280;63896;45.990;18.688;2023-11-19T04:59:53;101247.81;;;-0.89;100.00
75298;BME280;63896;45.990;18.688;2023-11-19T05:02:56;101240.34;;;-0.82;100.00
75298;BME280;63896;45.990;18.688;2023-11-19T05:05:59;101236.06;;;-0.83;100.00
75298;BME280;63896;45.990;18.688;2023-11-19T05:09:01;101228.84;;;-0.80;100.00
75298;BME280;63896;45.990;18.688;2023-11-19T05:12:08;101226.81;;;-0.76;100.00
75298;BME280;63896;45.990;18.688;2023-11-19T05:15:14;101232.16;;;-0.67;100.00
75298;BME280;63896;45.990;18.688;2023-11-19T05:18:17;101249.31;;;-0.64;100.00
75298;BME280;63896;45.990;18.688;2023-11-19T05:21:20;101239.13;;;-0.67;100.00
75298;BME280;63896;45.990;18.688;2023-11-19T05:24:22;101239.81;;;-0.54;100.00
75298;BME280;63896;45.990;18.688;2023-11-19T05:27:25;101240.91;;;-0.68;100.00
75298;BME280;63896;45.990;18.688;2023-11-19T05:30:29;101251.00;;;-0.74;100.00
75298;BME280;63896;45.990;18.688;2023-11-19T05:33:32;101261.84;;;-0.69;100.00
75298;BME280;63896;45.990;18.688;2023-11-19T05:36:35;101257.59;;;-0.59;100.00
75298;BME280;63896;45.990;18.688;2023-11-19T05:39:37;101258.03;;;-0.43;100.00
75298;BME280;63896;45.990;18.688;2023-11-19T05:42:41;101254.22;;;-0.28;100.00
75298;BME280;63896;45.990;18.688;2023-11-19T05:45:43;101249.09;;;-0.29;100.00
75298;BME280;63896;45.990;18.688;2023-11-19T05:48:46;101248.69;;;-0.14;100.00
75298;BME280;63896;45.990;18.688;2023-11-19T05:51:50;101250.00;;;-0.08;100.00
75298;BME280;63896;45.990;18.688;2023-11-19T05:54:53;101261.84;;;-0.04;100.00
75298;BME280;63896;45.990;18.688;2023-11-19T05:57:56;101257.25;;;0.09;100.00
75298;BME280;63896;45.990;18.688;2023-11-19T06:00:59;101254.75;;;0.19;100.00
75298;BME280;63896;45.990;18.688;2023-11-19T06:04:05;101257.72;;;0.35;100.00
75298;BME280;63896;45.990;18.688;2023-11-19T06:07:09;101257.72;;;0.56;100.00
75298;BME280;63896;45.990;18.688;2023-11-19T06:10:12;101249.84;;;0.46;100.00
75298;BME280;63896;45.990;18.688;2023-11-19T06:13:16;101243.06;;;0.64;100.00
75298;BME280;63896;45.990;18.688;2023-11-19T06:16:19;101227.84;;;0.69;100.00
75298;BME280;63896;45.990;18.688;2023-11-19T06:19:22;101229.28;;;0.83;100.00
75298;BME280;63896;45.990;18.688;2023-11-19T06:22:30;101226.00;;;0.81;100.00
75298;BME280;63896;45.990;18.688;2023-11-19T06:25:33;101230.63;;;0.77;100.00
75298;BME280;63896;45.990;18.688;2023-11-19T06:28:38;101223.56;;;0.99;100.00
75298;BME280;63896;45.990;18.688;2023-11-19T06:31:41;101228.06;;;0.87;100.00
75298;BME280;63896;45.990;18.688;2023-11-19T06:34:44;101215.63;;;1.00;100.00
75298;BME280;63896;45.990;18.688;2023-11-19T06:37:47;101220.41;;;1.05;100.00
75298;BME280;63896;45.990;18.688;2023-11-19T06:40:50;101224.91;;;1.23;100.00
75298;BME280;63896;45.990;18.688;2023-11-19T06:43:56;101239.59;;;1.24;100.00
75298;BME280;63896;45.990;18.688;2023-11-19T06:46:58;101234.75;;;1.10;100.00
75298;BME280;63896;45.990;18.688;2023-11-19T06:50:01;101231.66;;;1.35;100.00
75298;BME280;63896;45.990;18.688;2023-11-19T06:53:07;101222.31;;;1.33;100.00
75298;BME280;63896;45.990;18.688;2023-11-19T06:56:23;101215.75;;;1.08;100.00
75298;BME280;63896;45.990;18.688;2023-11-19T06:59:26;101227.91;;;1.19;100.00
75298;BME280;63896;45.990;18.688;2023-11-19T07:02:29;101227.91;;;1.19;100.00
75298;BME280;63896;45.990;18.688;2023-11-19T07:05:32;101226.47;;;1.55;100.00
75298;BME280;63896;45.990;18.688;2023-11-19T07:08:34;101232.84;;;1.90;100.00
75298;BME280;63896;45.990;18.688;2023-11-19T07:11:39;101216.72;;;1.95;100.00
75298;BME280;63896;45.990;18.688;2023-11-19T07:14:42;101210.28;;;2.65;100.00
75298;BME280;63896;45.990;18.688;2023-11-19T07:17:45;101207.50;;;3.30;100.00
75298;BME280;63896;45.990;18.688;2023-11-19T07:20:48;101210.53;;;4.06;100.00
75298;BME280;63896;45.990;18.688;2023-11-19T07:23:51;101210.22;;;4.87;94.34
75298;BME280;63896;45.990;18.688;2023-11-19T07:26:54;101221.19;;;4.74;94.80
75298;BME280;63896;45.990;18.688;2023-11-19T07:29:57;101210.44;;;4.16;97.65
75298;BME280;63896;45.990;18.688;2023-11-19T07:33:00;101201.00;;;3.52;100.00
75298;BME280;63896;45.990;18.688;2023-11-19T07:36:03;101204.31;;;3.54;100.00
75298;BME280;63896;45.990;18.688;2023-11-19T07:39:05;101203.31;;;3.38;100.00
75298;BME280;63896;45.990;18.688;2023-11-19T07:42:08;101205.41;;;3.52;100.00
75298;BME280;63896;45.990;18.688;2023-11-19T07:45:12;101201.63;;;3.19;100.00
75298;BME280;63896;45.990;18.688;2023-11-19T07:48:14;101204.19;;;3.28;100.00
75298;BME280;63896;45.990;18.688;2023-11-19T07:51:18;101186.91;;;3.53;100.00
75298;BME280;63896;45.990;18.688;2023-11-19T07:54:21;101175.28;;;3.56;100.00
75298;BME280;63896;45.990;18.688;2023-11-19T07:57:23;101188.75;;;3.70;100.00
75298;BME280;63896;45.990;18.688;2023-11-19T08:00:27;101188.75;;;3.70;100.00
75298;BME280;63896;45.990;18.688;2023-11-19T08:03:29;101173.56;;;4.00;100.00
75298;BME280;63896;45.990;18.688;2023-11-19T08:06:32;101179.91;;;4.15;99.32
75298;BME280;63896;45.990;18.688;2023-11-19T08:09:35;101169.44;;;3.97;100.00
75298;BME280;63896;45.990;18.688;2023-11-19T08:12:38;101172.59;;;4.01;99.21
75298;BME280;63896;45.990;18.688;2023-11-19T08:15:40;101178.72;;;4.09;100.00
75298;BME280;63896;45.990;18.688;2023-11-19T08:18:43;101173.81;;;4.32;98.65
75298;BME280;63896;45.990;18.688;2023-11-19T08:21:46;101180.00;;;4.57;97.08
75298;BME280;63896;45.990;18.688;2023-11-19T08:24:49;101177.34;;;4.49;98.20
75298;BME280;63896;45.990;18.688;2023-11-19T08:27:51;101185.72;;;4.78;94.87
75298;BME280;63896;45.990;18.688;2023-11-19T08:30:55;101175.44;;;4.59;95.27
75298;BME280;63896;45.990;18.688;2023-11-19T08:33:57;101171.91;;;4.76;95.44
75298;BME280;63896;45.990;18.688;2023-11-19T08:37:00;101165.81;;;4.75;95.73
75298;BME280;63896;45.990;18.688;2023-11-19T08:40:03;101175.06;;;4.88;96.71
75298;BME280;63896;45.990;18.688;2023-11-19T08:43:07;101190.22;;;4.60;100.00
75298;BME280;63896;45.990;18.688;2023-11-19T08:46:10;101183.16;;;4.60;100.00
75298;BME280;63896;45.990;18.688;2023-11-19T08:49:13;101187.03;;;4.22;100.00
75298;BME280;63896;45.990;18.688;2023-11-19T08:52:16;101190.03;;;4.10;100.00
75298;BME280;63896;45.990;18.688;2023-11-19T08:55:20;101191.13;;;4.25;100.00
75298;BME280;63896;45.990;18.688;2023-11-19T08:58:22;101187.13;;;4.39;100.00
75298;BME280;63896;45.990;18.688;2023-11-19T09:01:25;101188.00;;;4.21;100.00
75298;BME280;63896;45.990;18.688;2023-11-19T09:04:28;101177.19;;;4.50;100.00
75298;BME280;63896;45.990;18.688;2023-11-19T09:07:31;101163.47;;;4.64;100.00
75298;BME280;63896;45.990;18.688;2023-11-19T09:10:34;101143.97;;;4.75;100.00
75298;BME280;63896;45.990;18.688;2023-11-19T09:13:36;101148.69;;;4.63;100.00
75298;BME280;63896;45.990;18.688;2023-11-19T09:16:39;101133.84;;;4.54;100.00
75298;BME280;63896;45.990;18.688;2023-11-19T09:19:42;101110.03;;;4.56;100.00
75298;BME280;63896;45.990;18.688;2023-11-19T09:22:44;101112.84;;;4.96;100.00
75298;BME280;63896;45.990;18.688;2023-11-19T09:25:47;101095.66;;;5.42;96.34
75298;BME280;63896;45.990;18.688;2023-11-19T09:28:50;101089.41;;;5.43;95.33
75298;BME280;63896;45.990;18.688;2023-11-19T09:31:53;101087.47;;;6.88;87.47
75298;BME280;63896;45.990;18.688;2023-11-19T09:34:56;101079.97;;;8.78;76.49
75298;BME280;63896;45.990;18.688;2023-11-19T09:37:58;101060.91;;;10.17;65.88
75298;BME280;63896;45.990;18.688;2023-11-19T09:41:05;101057.47;;;11.31;59.41
75298;BME280;63896;45.990;18.688;2023-11-19T09:44:11;101045.44;;;11.81;56.06
75298;BME280;63896;45.990;18.688;2023-11-19T09:47:16;101052.56;;;11.34;53.72
75298;BME280;63896;45.990;18.688;2023-11-19T09:50:20;101068.72;;;10.66;56.32
75298;BME280;63896;45.990;18.688;2023-11-19T09:53:23;101053.28;;;10.41;56.41
75298;BME280;63896;45.990;18.688;2023-11-19T09:56:28;101045.97;;;11.17;54.45
75298;BME280;63896;45.990;18.688;2023-11-19T09:59:33;101056.75;;;10.42;55.90
75298;BME280;63896;45.990;18.688;2023-11-19T10:02:36;101066.00;;;10.18;56.77
75298;BME280;63896;45.990;18.688;2023-11-19T10:05:39;101056.91;;;9.29;58.72
75298;BME280;63896;45.990;18.688;2023-11-19T10:08:44;101036.78;;;8.92;60.95
75298;BME280;63896;45.990;18.688;2023-11-19T10:11:46;101045.81;;;8.98;61.68
75298;BME280;63896;45.990;18.688;2023-11-19T10:14:50;101039.41;;;8.92;62.27
75298;BME280;63896;45.990;18.688;2023-11-19T10:17:57;101031.81;;;9.46;61.40
75298;BME280;63896;45.990;18.688;2023-11-19T10:21:00;101022.47;;;9.50;60.62
75298;BME280;63896;45.990;18.688;2023-11-19T10:24:03;101021.88;;;9.76;60.67
75298;BME280;63896;45.990;18.688;2023-11-19T10:27:07;101002.88;;;9.45;60.52
75298;BME280;63896;45.990;18.688;2023-11-19T10:30:11;100993.09;;;9.45;61.52
75298;BME280;63896;45.990;18.688;2023-11-19T10:33:14;100989.16;;;8.92;63.15
75298;BME280;63896;45.990;18.688;2023-11-19T10:36:22;100982.47;;;9.73;59.79
75298;BME280;63896;45.990;18.688;2023-11-19T10:39:52;100981.66;;;8.75;63.96
75298;BME280;63896;45.990;18.688;2023-11-19T10:43:03;100990.28;;;9.04;63.42
75298;BME280;63896;45.990;18.688;2023-11-19T10:46:13;100972.75;;;8.61;62.35
75298;BME280;63896;45.990;18.688;2023-11-19T10:49:17;100961.94;;;8.77;60.30
75298;BME280;63896;45.990;18.688;2023-11-19T10:52:19;100956.38;;;8.93;59.57
75298;BME280;63896;45.990;18.688;2023-11-19T10:55:27;100951.91;;;9.15;60.03
75298;BME280;63896;45.990;18.688;2023-11-19T10:58:32;100947.25;;;8.75;60.12
75298;BME280;63896;45.990;18.688;2023-11-19T11:01:43;100950.56;;;8.62;60.43
75298;BME280;63896;45.990;18.688;2023-11-19T11:04:47;100948.75;;;8.63;62.40
75298;BME280;63896;45.990;18.688;2023-11-19T11:07:51;100941.38;;;8.58;62.36
75298;BME280;63896;45.990;18.688;2023-11-19T11:10:55;100938.13;;;8.56;61.94
75298;BME280;63896;45.990;18.688;2023-11-19T11:14:01;100934.59;;;8.49;63.25
75298;BME280;63896;45.990;18.688;2023-11-19T11:17:04;100929.69;;;8.67;61.80
75298;BME280;63896;45.990;18.688;2023-11-19T11:20:10;100927.94;;;8.95;61.56
75298;BME280;63896;45.990;18.688;2023-11-19T11:30:29;100915.19;;;8.84;61.96
75298;BME280;63896;45.990;18.688;2023-11-19T11:37:32;100935.00;;;9.16;62.02
75298;BME280;63896;45.990;18.688;2023-11-19T11:40:35;100932.09;;;9.32;59.34
75298;BME280;63896;45.990;18.688;2023-11-19T11:43:49;100926.38;;;9.07;60.97
75298;BME280;63896;45.990;18.688;2023-11-19T11:46:55;100921.25;;;8.99;61.50
75298;BME280;63896;45.990;18.688;2023-11-19T11:50:06;100920.66;;;9.32;60.85
75298;BME280;63896;45.990;18.688;2023-11-19T11:53:13;100915.34;;;9.60;61.26
75298;BME280;63896;45.990;18.688;2023-11-19T11:56:16;100905.13;;;9.22;62.62
75298;BME280;63896;45.990;18.688;2023-11-19T11:59:19;100880.91;;;10.00;59.93
75298;BME280;63896;45.990;18.688;2023-11-19T12:02:22;100866.56;;;10.29;58.53
75298;BME280;63896;45.990;18.688;2023-11-19T12:05:25;100859.41;;;10.36;58.73
75298;BME280;63896;45.990;18.688;2023-11-19T12:08:29;100862.91;;;11.29;55.80
75298;BME280;63896;45.990;18.688;2023-11-19T12:11:33;100859.00;;;11.44;54.00
75298;BME280;63896;45.990;18.688;2023-11-19T12:15:04;100854.59;;;10.73;54.38
75298;BME280;63896;45.990;18.688;2023-11-19T12:18:08;100844.63;;;12.54;51.01
75298;BME280;63896;45.990;18.688;2023-11-19T12:21:11;100845.75;;;12.33;50.83
75298;BME280;63896;45.990;18.688;2023-11-19T12:24:14;100834.78;;;12.23;50.09
75298;BME280;63896;45.990;18.688;2023-11-19T12:27:17;100844.72;;;11.32;51.27
75298;BME280;63896;45.990;18.688;2023-11-19T12:30:24;100844.03;;;10.12;55.97
75298;BME280;63896;45.990;18.688;2023-11-19T12:33:30;100839.66;;;10.52;55.87
75298;BME280;63896;45.990;18.688;2023-11-19T12:36:33;100838.44;;;10.61;54.00
75298;BME280;63896;45.990;18.688;2023-11-19T12:39:37;100836.81;;;10.54;54.67
75298;BME280;63896;45.990;18.688;2023-11-19T12:42:40;100843.31;;;11.30;52.13
75298;BME280;63896;45.990;18.688;2023-11-19T12:45:43;100832.66;;;12.01;49.59
75298;BME280;63896;45.990;18.688;2023-11-19T12:48:48;100823.59;;;11.57;50.25
75298;BME280;63896;45.990;18.688;2023-11-19T12:51:51;100788.91;;;11.90;49.53
75298;BME280;63896;45.990;18.688;2023-11-19T12:54:53;100805.50;;;11.28;50.95
75298;BME280;63896;45.990;18.688;2023-11-19T12:57:57;100790.16;;;11.36;50.92
75298;BME280;63896;45.990;18.688;2023-11-19T13:01:06;100783.75;;;10.73;52.46
75298;BME280;63896;45.990;18.688;2023-11-19T13:04:17;100784.34;;;10.29;55.06
75298;BME280;63896;45.990;18.688;2023-11-19T13:07:21;100781.34;;;9.78;56.09
75298;BME280;63896;45.990;18.688;2023-11-19T13:10:24;100790.00;;;9.12;58.91
75298;BME280;63896;45.990;18.688;2023-11-19T13:13:27;100807.25;;;9.07;59.35
75298;BME280;63896;45.990;18.688;2023-11-19T13:16:31;100802.34;;;8.98;60.58
75298;BME280;63896;45.990;18.688;2023-11-19T13:19:34;100791.75;;;8.70;63.22
75298;BME280;63896;45.990;18.688;2023-11-19T13:22:37;100789.28;;;8.41;65.50
75298;BME280;63896;45.990;18.688;2023-11-19T13:25:40;100789.47;;;8.03;66.68
75298;BME280;63896;45.990;18.688;2023-11-19T13:28:43;100802.56;;;8.11;66.74
75298;BME280;63896;45.990;18.688;2023-11-19T13:31:45;100802.25;;;8.00;66.94
75298;BME280;63896;45.990;18.688;2023-11-19T13:34:48;100799.91;;;7.90;68.63
75298;BME280;63896;45.990;18.688;2023-11-19T13:37:51;100795.13;;;8.00;68.45
75298;BME280;63896;45.990;18.688;2023-11-19T13:40:54;100813.94;;;7.91;69.61
75298;BME280;63896;45.990;18.688;2023-11-19T13:43:57;100794.91;;;8.17;68.03
75298;BME280;63896;45.990;18.688;2023-11-19T13:47:00;100789.75;;;8.08;68.47
75298;BME280;63896;45.990;18.688;2023-11-19T13:50:03;100791.00;;;8.12;68.31
75298;BME280;63896;45.990;18.688;2023-11-19T13:53:08;100787.25;;;7.86;68.79
75298;BME280;63896;45.990;18.688;2023-11-19T13:56:11;100783.47;;;7.74;70.69
75298;BME280;63896;45.990;18.688;2023-11-19T13:59:14;100790.31;;;7.68;71.74
75298;BME280;63896;45.990;18.688;2023-11-19T14:02:16;100785.16;;;7.60;72.10
75298;BME280;63896;45.990;18.688;2023-11-19T14:05:19;100798.91;;;7.41;74.08
75298;BME280;63896;45.990;18.688;2023-11-19T14:08:25;100792.00;;;7.40;73.82
75298;BME280;63896;45.990;18.688;2023-11-19T14:11:28;100786.88;;;7.38;74.65
75298;BME280;63896;45.990;18.688;2023-11-19T14:14:30;100777.53;;;7.36;76.79
75298;BME280;63896;45.990;18.688;2023-11-19T14:17:33;100785.25;;;7.52;78.30
75298;BME280;63896;45.990;18.688;2023-11-19T14:20:36;100782.31;;;7.61;79.86
75298;BME280;63896;45.990;18.688;2023-11-19T14:23:41;100785.50;;;7.57;81.79
75298;BME280;63896;45.990;18.688;2023-11-19T14:26:46;100782.59;;;7.52;81.57
75298;BME280;63896;45.990;18.688;2023-11-19T14:29:49;100787.00;;;7.45;81.13
75298;BME280;63896;45.990;18.688;2023-11-19T14:32:53;100785.16;;;7.31;83.77
75298;BME280;63896;45.990;18.688;2023-11-19T14:35:56;100779.91;;;7.16;85.42
75298;BME280;63896;45.990;18.688;2023-11-19T14:38:59;100777.25;;;7.16;86.09
75298;BME280;63896;45.990;18.688;2023-11-19T14:42:02;100781.56;;;7.02;87.82
75298;BME280;63896;45.990;18.688;2023-11-19T14:45:07;100769.44;;;7.08;88.05
75298;BME280;63896;45.990;18.688;2023-11-19T14:48:10;100762.63;;;7.13;88.86
75298;BME280;63896;45.990;18.688;2023-11-19T14:51:13;100783.34;;;7.16;89.21
75298;BME280;63896;45.990;18.688;2023-11-19T14:54:16;100779.34;;;7.21;88.67
75298;BME280;63896;45.990;18.688;2023-11-19T14:57:19;100770.25;;;7.23;88.71
75298;BME280;63896;45.990;18.688;2023-11-19T15:00:22;100765.41;;;7.27;89.18
75298;BME280;63896;45.990;18.688;2023-11-19T15:03:25;100771.81;;;7.17;90.71
75298;BME280;63896;45.990;18.688;2023-11-19T15:06:28;100767.16;;;7.05;91.01
75298;BME280;63896;45.990;18.688;2023-11-19T15:09:33;100760.31;;;6.81;93.14
75298;BME280;63896;45.990;18.688;2023-11-19T15:12:39;100761.56;;;6.56;95.26
75298;BME280;63896;45.990;18.688;2023-11-19T15:15:44;100746.53;;;6.42;97.10
75298;BME280;63896;45.990;18.688;2023-11-19T15:18:47;100744.25;;;6.39;98.21
75298;BME280;63896;45.990;18.688;2023-11-19T15:21:49;100748.44;;;6.33;99.73
75298;BME280;63896;45.990;18.688;2023-11-19T15:24:52;100768.56;;;6.26;99.92
75298;BME280;63896;45.990;18.688;2023-11-19T15:27:56;100759.56;;;6.20;100.00
75298;BME280;63896;45.990;18.688;2023-11-19T15:30:59;100752.13;;;6.24;100.00
75298;BME280;63896;45.990;18.688;2023-11-19T15:34:02;100757.91;;;6.19;100.00
75298;BME280;63896;45.990;18.688;2023-11-19T15:37:05;100773.09;;;6.17;100.00
75298;BME280;63896;45.990;18.688;2023-11-19T15:40:08;100759.94;;;6.17;100.00
75298;BME280;63896;45.990;18.688;2023-11-19T15:43:11;100740.53;;;6.33;100.00
75298;BME280;63896;45.990;18.688;2023-11-19T15:46:14;100730.78;;;6.34;99.71
75298;BME280;63896;45.990;18.688;2023-11-19T15:49:18;100734.16;;;6.28;97.99
75298;BME280;63896;45.990;18.688;2023-11-19T15:52:21;100747.91;;;6.15;98.06
75298;BME280;63896;45.990;18.688;2023-11-19T15:55:24;100756.03;;;5.83;100.00
75298;BME280;63896;45.990;18.688;2023-11-19T15:58:27;100758.91;;;5.65;100.00
75298;BME280;63896;45.990;18.688;2023-11-19T16:01:30;100763.28;;;5.42;100.00
75298;BME280;63896;45.990;18.688;2023-11-19T16:04:33;100777.03;;;5.21;100.00